Time;durP1;ratioP1;P1;durP2;ratioP2;P2;SDS_P1;SDS_P2;PMS_P1;PMS_P2;Temp;Humidity;BMP_temperature;BMP_pressure;BME280_temperature;BME280_humidity;BME280_pressure;Samples;Min_cycle;Max_cycle;Signal;HPM_P1;HPM_P2
2022/03/05 00:01:18;;;;;;;22.70;18.50;;;;;;;-143.84;88.64;45132.84;5050641;28;20441;-76
2022/03/05 00:03:46;;;;;;;23.47;18.90;;;;;;;-143.84;89.00;45161.41;5051024;28;20441;-77
2022/03/05 00:06:14;;;;;;;27.67;19.47;;;;;;;-143.84;88.97;45178.56;5051279;28;21013;-77
2022/03/05 00:08:41;;;;;;;25.50;19.43;;;;;;;-143.84;89.10;45176.66;5051492;28;21252;-77
2022/03/05 00:11:08;;;;;;;23.00;16.83;;;;;;;-143.84;89.08;45148.09;5051201;28;20478;-77
2022/03/05 00:13:36;;;;;;;25.77;19.90;;;;;;;-143.84;89.34;45148.09;5051820;28;20499;-77
2022/03/05 00:16:04;;;;;;;22.93;18.77;;;;;;;-143.84;89.25;45150.00;5051166;28;20460;-77
2022/03/05 00:18:31;;;;;;;26.20;19.17;;;;;;;-143.84;89.16;45161.41;5051534;28;20883;-77
2022/03/05 00:20:59;;;;;;;29.03;18.57;;;;;;;-143.84;89.35;45161.41;5051564;28;20970;-77
2022/03/05 00:23:27;;;;;;;24.00;17.10;;;;;;;-143.84;89.04;45144.28;5051337;28;20493;-77
2022/03/05 00:25:54;;;;;;;23.90;18.40;;;;;;;-143.84;88.87;45148.09;5051085;28;20499;-78
2022/03/05 00:28:21;;;;;;;26.63;18.20;;;;;;;-143.84;88.82;45150.00;5050985;28;20975;-77
2022/03/05 00:30:48;;;;;;;22.30;16.83;;;;;;;-143.84;88.34;45195.69;5050905;28;20489;-77
2022/03/05 00:33:16;;;;;;;21.37;17.07;;;;;;;-143.84;88.02;45167.13;5050628;28;20515;-77
2022/03/05 00:35:43;;;;;;;23.47;17.77;;;;;;;-143.84;87.73;45174.75;5049839;28;20469;-77
2022/03/05 00:38:12;;;;;;;21.67;17.73;;;;;;;-143.84;87.11;45195.69;5050162;28;20446;-77
2022/03/05 00:40:41;;;;;;;23.47;17.13;;;;;;;-143.84;87.05;45170.94;5050350;28;21010;-77
2022/03/05 00:43:08;;;;;;;21.60;17.10;;;;;;;-143.84;86.81;45222.34;5050862;28;20802;-77
2022/03/05 00:45:36;;;;;;;22.80;16.93;;;;;;;-143.84;86.78;45207.13;5050749;28;20448;-77
2022/03/05 00:48:03;;;;;;;21.57;16.60;;;;;;;-143.84;86.31;45191.88;5051142;28;20430;-77
2022/03/05 00:50:30;;;;;;;26.83;17.27;;;;;;;-143.84;85.85;45197.59;5050616;28;20497;-77
2022/03/05 00:52:58;;;;;;;32.80;19.10;;;;;;;-143.84;85.54;45195.69;5049243;28;20464;-77
2022/03/05 00:55:26;;;;;;;20.70;16.80;;;;;;;-143.84;85.48;45130.94;5048843;28;20445;-77
2022/03/05 00:57:54;;;;;;;23.30;19.07;;;;;;;-143.84;85.52;45197.59;5049771;28;20801;-77
2022/03/05 01:00:21;;;;;;;22.93;18.10;;;;;;;-143.84;85.80;45188.06;5050102;28;20492;-77
2022/03/05 01:02:48;;;;;;;22.40;16.80;;;;;;;-143.84;85.88;45180.47;5049173;28;20473;-77
2022/03/05 01:05:16;;;;;;;28.30;17.13;;;;;;;-143.84;85.78;45176.66;5050579;28;20438;-77
2022/03/05 01:07:43;;;;;;;21.70;17.47;;;;;;;-143.84;86.03;45174.75;5050554;28;20449;-77
2022/03/05 01:10:10;;;;;;;21.80;17.00;;;;;;;-143.84;86.02;45157.59;5053288;28;20433;-77
2022/03/05 01:12:39;;;;;;;20.40;16.63;;;;;;;-143.84;86.06;45174.75;5054531;28;20484;-77
2022/03/05 01:15:08;;;;;;;21.47;16.53;;;;;;;-143.84;86.44;45163.31;5054486;28;20448;-77
2022/03/05 01:17:35;;;;;;;19.10;15.47;;;;;;;-143.84;86.48;45167.13;5054204;28;20437;-77
2022/03/05 01:20:03;;;;;;;21.63;16.60;;;;;;;-143.84;86.57;45159.50;5054068;28;20441;-77
2022/03/05 01:22:30;;;;;;;22.13;16.27;;;;;;;-143.84;86.51;45195.69;5051141;28;20441;-77
2022/03/05 01:24:57;;;;;;;29.23;18.30;;;;;;;-143.84;86.90;45161.41;5050782;28;20474;-77
2022/03/05 01:27:24;;;;;;;20.60;16.50;;;;;;;-143.84;87.22;45180.47;5051796;28;20931;-77
2022/03/05 01:29:53;;;;;;;21.87;17.37;;;;;;;-143.84;87.00;45157.59;5053260;28;20446;-77
2022/03/05 01:32:20;;;;;;;25.07;18.60;;;;;;;-143.84;87.36;45188.06;5053484;28;20538;-77
2022/03/05 01:34:47;;;;;;;27.57;17.70;;;;;;;-143.84;87.63;45195.69;5054084;28;20433;-77
2022/03/05 01:37:14;;;;;;;29.47;17.93;;;;;;;-143.84;87.81;45178.56;5053819;28;20862;-77
2022/03/05 01:39:43;;;;;;;22.70;17.43;;;;;;;-143.84;87.93;45174.75;5053666;28;20433;-77
2022/03/05 01:42:11;;;;;;;26.17;18.23;;;;;;;-143.84;88.36;45189.97;5053711;28;20438;-77
2022/03/05 01:44:38;;;;;;;26.77;20.50;;;;;;;-143.84;88.80;45170.94;5053907;28;20483;-77
2022/03/05 01:47:07;;;;;;;24.80;18.77;;;;;;;-143.84;88.74;45201.41;5053735;28;20477;-77
2022/03/05 01:49:34;;;;;;;22.30;18.47;;;;;;;-143.84;89.21;45172.84;5054181;28;20437;-77
2022/03/05 01:52:01;;;;;;;25.90;20.00;;;;;;;-143.84;89.57;45167.13;5053695;28;20469;-77
2022/03/05 01:54:29;;;;;;;24.47;19.33;;;;;;;-143.84;89.58;45163.31;5053826;28;20434;-77
2022/03/05 01:56:58;;;;;;;24.47;19.37;;;;;;;-143.84;89.90;45186.16;5053594;28;20491;-77
2022/03/05 01:59:25;;;;;;;25.53;19.40;;;;;;;-143.84;89.52;45172.84;5053535;28;20438;-77
2022/03/05 02:01:53;;;;;;;25.43;19.67;;;;;;;-143.84;89.97;45201.41;5053205;28;20511;-77
2022/03/05 02:04:21;;;;;;;23.33;18.60;;;;;;;-143.84;90.05;45172.84;5053242;28;20492;-77
2022/03/05 02:06:49;;;;;;;27.70;20.20;;;;;;;-143.84;90.06;45159.50;5053469;28;20500;-77
2022/03/05 02:09:16;;;;;;;25.73;19.10;;;;;;;-143.84;90.46;45157.59;5053886;28;20438;-77
2022/03/05 02:11:43;;;;;;;23.90;18.30;;;;;;;-143.84;90.52;45163.31;5053473;28;20472;-77
2022/03/05 02:14:10;;;;;;;25.47;19.20;;;;;;;-143.84;90.48;45159.50;5053230;28;20437;-77
2022/03/05 02:16:38;;;;;;;22.93;19.50;;;;;;;-143.84;90.46;45161.41;5052415;28;20442;-77
2022/03/05 02:19:06;;;;;;;27.60;19.80;;;;;;;-143.84;90.27;45136.66;5052142;28;20445;-77
2022/03/05 02:21:36;;;;;;;26.23;19.23;;;;;;;-143.84;90.61;45155.69;5052825;28;21042;-77
2022/03/05 02:24:04;;;;;;;24.57;19.27;;;;;;;-143.84;90.61;45148.09;5052922;28;21006;-77
2022/03/05 02:26:31;;;;;;;23.03;18.80;;;;;;;-143.84;90.51;45161.41;5052603;28;20988;-77
2022/03/05 02:28:58;;;;;;;22.93;18.30;;;;;;;-143.84;90.55;45169.03;5052298;28;20845;-77
2022/03/05 02:31:26;;;;;;;27.63;20.03;;;;;;;-143.84;90.35;45157.59;5052571;28;20480;-77
2022/03/05 02:33:55;;;;;;;27.53;18.73;;;;;;;-143.84;90.24;45169.03;5053169;28;20467;-77
2022/03/05 02:36:23;;;;;;;25.80;20.07;;;;;;;-143.84;90.54;45132.84;5053086;28;20864;-76
2022/03/05 02:38:52;;;;;;;26.93;19.33;;;;;;;-143.84;90.63;45163.31;5052979;28;20442;-77
2022/03/05 02:41:19;;;;;;;30.13;20.10;;;;;;;-143.84;90.58;45159.50;5052829;28;20491;-77
2022/03/05 02:43:47;;;;;;;26.27;20.30;;;;;;;-143.84;90.61;45155.69;5051509;28;20962;-77
2022/03/05 02:46:14;;;;;;;26.63;19.80;;;;;;;-143.84;90.86;45169.03;5050957;28;20441;-77
2022/03/05 02:48:42;;;;;;;21.97;18.17;;;;;;;-143.84;90.72;45169.03;5051788;28;20438;-77
2022/03/05 02:51:09;;;;;;;27.50;19.83;;;;;;;-143.84;91.18;45129.03;5052744;28;20485;-77
2022/03/05 02:53:36;;;;;;;24.73;19.37;;;;;;;-143.84;91.34;45148.09;5052593;28;20441;-77
2022/03/05 02:56:05;;;;;;;25.90;19.97;;;;;;;-143.84;91.52;45157.59;5052443;28;20438;-77
2022/03/05 02:58:33;;;;;;;23.93;18.87;;;;;;;-143.84;91.48;45169.03;5052658;28;20540;-77
2022/03/05 03:01:00;;;;;;;26.93;20.30;;;;;;;-143.84;91.77;45151.91;5053323;28;20492;-77
2022/03/05 03:03:27;;;;;;;28.50;19.63;;;;;;;-143.84;91.78;45130.94;5052591;28;20504;-77
2022/03/05 03:05:54;;;;;;;31.33;19.70;;;;;;;-143.84;91.84;45138.56;5052293;28;21025;-77
2022/03/05 03:08:21;;;;;;;30.17;19.63;;;;;;;-143.84;91.97;45153.81;5052128;28;20492;-77
2022/03/05 03:10:48;;;;;;;24.30;18.80;;;;;;;-143.84;92.17;45161.41;5052371;28;20434;-77
2022/03/05 03:13:17;;;;;;;30.80;21.70;;;;;;;-143.84;91.97;45140.47;5051887;28;20441;-77
2022/03/05 03:15:44;;;;;;;30.30;22.13;;;;;;;-143.84;91.72;45146.19;5051872;28;20442;-77
2022/03/05 03:18:11;;;;;;;29.63;20.40;;;;;;;-143.84;91.61;45123.34;5051698;28;20434;-77
2022/03/05 03:20:38;;;;;;;26.67;19.57;;;;;;;-143.84;92.40;45134.75;5051852;28;20426;-77
2022/03/05 03:23:06;;;;;;;30.43;20.43;;;;;;;-143.84;92.34;45129.03;5051626;28;20543;-77
2022/03/05 03:25:33;;;;;;;33.03;21.87;;;;;;;-143.84;92.29;45144.28;5051665;28;20457;-77
2022/03/05 03:28:00;;;;;;;27.00;20.13;;;;;;;-143.84;92.36;45167.13;5051523;28;20441;-77
2022/03/05 03:30:28;;;;;;;28.63;20.50;;;;;;;-143.84;92.25;45134.75;5051094;28;20446;-77
2022/03/05 03:32:56;;;;;;;29.73;19.63;;;;;;;-143.84;92.11;45150.00;5049560;28;20512;-77
2022/03/05 03:35:23;;;;;;;29.60;22.27;;;;;;;-143.84;91.95;45163.31;5050891;28;20850;-77
2022/03/05 03:37:51;;;;;;;27.77;20.70;;;;;;;-143.84;92.23;45157.59;5050376;28;20495;-77
2022/03/05 03:40:19;;;;;;;30.93;21.77;;;;;;;-143.84;91.95;45123.34;5050261;28;20499;-77
2022/03/05 03:42:48;;;;;;;33.40;20.17;;;;;;;-143.84;91.83;45132.84;5051561;28;20514;-77
2022/03/05 03:45:17;;;;;;;27.80;21.00;;;;;;;-143.84;92.17;45100.47;5051655;28;20441;-77
2022/03/05 03:47:48;;;;;;;28.20;21.90;;;;;;;-143.84;92.32;45127.13;5052308;28;20479;-77
2022/03/05 03:50:19;;;;;;;29.40;20.57;;;;;;;-143.84;92.14;45119.53;5051696;28;20454;-77
2022/03/05 03:52:46;;;;;;;24.27;19.13;;;;;;;-143.84;92.03;45150.00;5051935;28;20978;-77
2022/03/05 03:55:16;;;;;;;26.60;20.07;;;;;;;-143.84;91.68;45129.03;5051567;28;20500;-77
2022/03/05 03:57:43;;;;;;;28.30;21.20;;;;;;;-143.84;91.88;45146.19;5051530;28;20457;-77
2022/03/05 04:00:14;;;;;;;26.53;20.57;;;;;;;-143.84;91.76;45155.69;5051863;28;20441;-77
2022/03/05 04:02:41;;;;;;;29.63;20.60;;;;;;;-143.84;91.79;45146.19;5051809;28;21239;-77
2022/03/05 04:05:12;;;;;;;27.60;19.17;;;;;;;-143.84;91.66;45146.19;5051322;28;20508;-77
2022/03/05 04:10:36;;;;;;;26.53;18.70;;;;;;;-143.84;91.57;45142.38;5009387;28;20590;-77
2022/03/05 04:13:03;;;;;;;26.97;21.07;;;;;;;-143.84;91.50;45129.03;5041481;28;21016;-77
2022/03/05 04:15:30;;;;;;;30.17;20.57;;;;;;;-143.84;91.98;45148.09;5051393;28;20434;-77
2022/03/05 04:17:57;;;;;;;30.70;20.77;;;;;;;-143.84;91.81;45155.69;5051001;28;20452;-77
2022/03/05 04:20:26;;;;;;;29.37;21.77;;;;;;;-143.84;91.97;45150.00;5050545;28;20764;-77
2022/03/05 04:22:53;;;;;;;28.67;20.50;;;;;;;-143.84;92.21;45121.44;5050740;28;20489;-77
2022/03/05 04:25:20;;;;;;;26.23;19.60;;;;;;;-143.84;92.20;45132.84;5050922;28;20768;-77
2022/03/05 04:27:47;;;;;;;28.43;21.40;;;;;;;-143.84;92.37;45163.31;5050903;28;20445;-77
2022/03/05 04:30:14;;;;;;;26.60;20.73;;;;;;;-143.84;92.35;45144.28;5051197;28;20437;-77
2022/03/05 04:32:42;;;;;;;30.50;22.13;;;;;;;-143.84;92.21;45155.69;5050582;28;20874;-77
2022/03/05 04:35:09;;;;;;;28.80;21.20;;;;;;;-143.84;92.29;45117.63;5048487;28;20441;-77
2022/03/05 04:37:38;;;;;;;29.00;20.90;;;;;;;-143.84;92.04;45117.63;5049595;28;20449;-77
2022/03/05 04:40:07;;;;;;;30.97;22.17;;;;;;;-143.84;92.14;45155.69;5051164;28;20434;-76
2022/03/05 04:42:34;;;;;;;29.60;22.33;;;;;;;-143.84;92.21;45138.56;5050956;28;20441;-77
2022/03/05 04:45:02;;;;;;;33.80;21.80;;;;;;;-143.84;92.09;45165.22;5053666;28;20448;-77
2022/03/05 04:47:29;;;;;;;29.57;21.53;;;;;;;-143.84;92.18;45144.28;5055001;28;20462;-77
2022/03/05 04:49:57;;;;;;;36.50;21.97;;;;;;;-143.84;92.10;45150.00;5053371;28;20453;-77
2022/03/05 04:52:24;;;;;;;31.00;21.80;;;;;;;-143.84;91.97;45151.91;5054477;28;21014;-77
2022/03/05 04:54:52;;;;;;;29.67;21.93;;;;;;;-143.84;92.26;45130.94;5054883;28;20430;-77
2022/03/05 04:57:20;;;;;;;28.80;23.00;;;;;;;-143.84;92.23;45119.53;5054581;28;20449;-77
2022/03/05 04:59:47;;;;;;;31.10;21.27;;;;;;;-143.84;92.25;45130.94;5054938;28;20464;-77
2022/03/05 05:02:14;;;;;;;27.63;20.30;;;;;;;-143.84;92.37;45140.47;5054790;28;20841;-77
2022/03/05 05:04:41;;;;;;;30.60;22.93;;;;;;;-143.84;92.39;45134.75;5054916;28;20494;-77
2022/03/05 05:07:09;;;;;;;30.53;21.50;;;;;;;-143.84;92.73;45121.44;5054891;28;20495;-77
2022/03/05 05:09:36;;;;;;;36.50;23.40;;;;;;;-143.84;92.27;45125.22;5054488;28;20503;-77
2022/03/05 05:12:06;;;;;;;31.00;23.23;;;;;;;-143.84;92.38;45125.22;5054758;28;21002;-77
2022/03/05 05:14:34;;;;;;;30.43;22.87;;;;;;;-143.84;92.56;45155.69;5054876;28;20852;-77
2022/03/05 05:17:01;;;;;;;33.57;23.00;;;;;;;-143.84;92.77;45127.13;5054543;28;20441;-77
2022/03/05 05:19:31;;;;;;;33.00;23.67;;;;;;;-143.84;92.56;45123.34;5054502;28;20507;-77
2022/03/05 05:21:59;;;;;;;32.80;23.70;;;;;;;-143.84;92.03;45115.72;5054574;28;20449;-77
2022/03/05 05:24:28;;;;;;;29.07;21.47;;;;;;;-143.84;92.38;45129.03;5054464;28;20485;-77
2022/03/05 05:26:56;;;;;;;34.83;24.23;;;;;;;-143.84;92.41;45132.84;5054252;28;20963;-76
2022/03/05 05:29:25;;;;;;;31.53;22.43;;;;;;;-143.84;92.30;45134.75;5054274;28;20495;-77
2022/03/05 05:31:52;;;;;;;36.20;24.97;;;;;;;-143.84;91.83;45108.09;5053643;28;20477;-77
2022/03/05 05:34:20;;;;;;;32.90;22.17;;;;;;;-143.84;92.00;45121.44;5050801;28;21013;-77
2022/03/05 05:36:47;;;;;;;33.43;24.00;;;;;;;-143.84;91.78;45144.28;5045794;28;20986;-78
2022/03/05 05:39:15;;;;;;;34.00;22.50;;;;;;;-143.84;91.45;45132.84;5035538;28;20495;-77
2022/03/05 05:41:42;;;;;;;37.33;25.77;;;;;;;-143.84;91.40;45178.56;5061054;28;20464;-74
2022/03/05 05:44:11;;;;;;;39.93;25.00;;;;;;;-143.84;91.24;45134.75;5057348;28;20444;-75
2022/03/05 05:46:41;;;;;;;35.80;23.13;;;;;;;-143.84;91.26;45159.50;5062174;28;20476;-75
2022/03/05 05:49:08;;;;;;;40.40;24.50;;;;;;;-143.84;90.97;45159.50;5056591;28;20449;-75
2022/03/05 05:51:36;;;;;;;33.50;23.23;;;;;;;-143.84;90.88;45129.03;5054871;28;20863;-74
2022/03/05 05:54:03;;;;;;;37.50;25.67;;;;;;;-143.84;90.97;45148.09;5061469;28;20789;-74
2022/03/05 05:56:30;;;;;;;33.00;22.87;;;;;;;-143.84;90.75;45157.59;5059660;28;20457;-74
2022/03/05 05:58:57;;;;;;;34.80;25.27;;;;;;;-143.84;90.87;45132.84;5057116;28;20798;-75
2022/03/05 06:01:25;;;;;;;34.27;23.33;;;;;;;-143.84;90.71;45121.44;5062389;28;20942;-74
2022/03/05 06:03:54;;;;;;;39.80;24.33;;;;;;;-143.84;90.40;45117.63;5059497;28;20515;-74
2022/03/05 06:06:21;;;;;;;38.77;24.20;;;;;;;-143.84;90.13;45136.66;5054282;28;20452;-74
2022/03/05 06:08:48;;;;;;;35.43;23.87;;;;;;;-143.84;89.96;45161.41;5059504;28;20453;-75
2022/03/05 06:11:16;;;;;;;39.50;23.97;;;;;;;-143.84;89.94;45140.47;5061483;28;20450;-76
2022/03/05 06:13:43;;;;;;;33.40;23.37;;;;;;;-143.84;89.02;45136.66;5061200;28;20497;-74
2022/03/05 06:16:11;;;;;;;36.40;23.37;;;;;;;-143.84;88.79;45174.75;5056394;28;20449;-74
2022/03/05 06:18:39;;;;;;;44.30;27.20;;;;;;;-143.84;88.73;45159.50;5062468;28;20532;-76
2022/03/05 06:21:08;;;;;;;50.33;29.90;;;;;;;-143.84;88.97;45184.25;5059463;28;20530;-74
2022/03/05 06:23:36;;;;;;;39.13;24.87;;;;;;;-143.84;88.58;45144.28;5059792;28;20846;-74
2022/03/05 06:26:04;;;;;;;38.60;24.30;;;;;;;-143.84;88.04;45132.84;5062668;28;20515;-74
2022/03/05 06:28:32;;;;;;;33.20;24.90;;;;;;;-143.84;87.53;45170.94;5061843;28;20468;-74
2022/03/05 06:30:59;;;;;;;38.90;25.07;;;;;;;-143.84;87.22;45172.84;5053852;28;20453;-74
2022/03/05 06:33:26;;;;;;;35.07;24.00;;;;;;;-143.84;86.86;45142.38;5058157;28;20489;-74
2022/03/05 06:35:54;;;;;;;38.20;26.03;;;;;;;-143.84;87.47;45134.75;5056949;28;20879;-74
2022/03/05 06:38:22;;;;;;;39.63;25.60;;;;;;;-143.84;86.93;45142.38;5059704;28;20502;-74
2022/03/05 06:40:49;;;;;;;33.73;23.77;;;;;;;-143.84;86.05;45186.16;5053224;28;20511;-74
2022/03/05 06:43:18;;;;;;;34.37;23.50;;;;;;;-143.84;85.00;45174.75;5059417;28;20527;-74
2022/03/05 06:45:46;;;;;;;39.23;24.60;;;;;;;-143.84;84.75;45167.13;5054063;28;20449;-74
2022/03/05 06:48:13;;;;;;;34.17;23.10;;;;;;;-143.84;84.23;45163.31;5060400;28;21028;-74
2022/03/05 06:50:40;;;;;;;30.93;22.17;;;;;;;-143.84;83.76;45155.69;5058018;28;20962;-74
2022/03/05 06:53:07;;;;;;;27.30;19.67;;;;;;;-143.84;83.57;45172.84;5057842;28;20563;-74
2022/03/05 06:55:36;;;;;;;29.23;19.53;;;;;;;-143.84;82.99;45157.59;5055497;28;20502;-74
2022/03/05 06:58:04;;;;;;;35.93;21.97;;;;;;;-143.84;82.47;45144.28;5050227;28;20437;-74
2022/03/05 07:00:32;;;;;;;29.20;20.93;;;;;;;-143.84;80.75;45174.75;5050149;28;21170;-74
2022/03/05 07:02:59;;;;;;;25.83;19.63;;;;;;;-143.84;81.35;45184.25;5058172;28;20471;-74
2022/03/05 07:05:26;;;;;;;27.70;21.27;;;;;;;-143.84;81.21;45155.69;5070003;28;20492;-74
2022/03/05 07:07:53;;;;;;;30.00;21.43;;;;;;;-143.84;81.31;45150.00;5069968;28;20442;-74
2022/03/05 07:10:20;;;;;;;36.27;24.10;;;;;;;-143.84;78.60;45170.94;5069844;28;20505;-74
2022/03/05 07:12:49;;;;;;;27.30;19.97;;;;;;;-143.84;75.88;45146.19;5069442;28;21064;-74
2022/03/05 07:15:17;;;;;;;32.33;20.10;;;;;;;-143.84;74.23;45155.69;5069637;28;20443;-74
2022/03/05 07:17:51;;;;;;;28.83;20.80;;;;;;;-143.84;72.02;45157.59;5069091;28;20502;-74
2022/03/05 07:20:21;;;;;;;27.93;19.10;;;;;;;-143.84;71.35;45163.31;5069486;28;20480;-75
2022/03/05 07:22:48;;;;;;;23.47;18.00;;;;;;;-143.84;70.32;45151.91;5069216;28;20482;-74
2022/03/05 07:25:16;;;;;;;22.97;18.07;;;;;;;-143.84;70.40;45129.03;5069283;28;20444;-74
2022/03/05 07:27:43;;;;;;;24.13;16.77;;;;;;;-143.84;69.37;45148.09;5069144;28;21026;-74
2022/03/05 07:30:12;;;;;;;27.13;19.73;;;;;;;-143.84;70.10;45148.09;5069307;28;20594;-74
2022/03/05 07:32:39;;;;;;;26.70;18.37;;;;;;;-143.84;69.17;45153.81;5069148;28;20476;-74
2022/03/05 07:35:08;;;;;;;25.07;17.17;;;;;;;-143.84;68.61;45127.13;5069313;28;20448;-74
2022/03/05 07:37:35;;;;;;;23.03;16.57;;;;;;;-143.84;68.42;45136.66;5069492;28;20436;-75
2022/03/05 07:40:03;;;;;;;26.00;18.67;;;;;;;-143.84;68.83;45150.00;5053709;28;20446;-74
2022/03/05 07:42:31;;;;;;;21.37;16.97;;;;;;;-143.84;69.23;45167.13;5048946;28;20433;-74
2022/03/05 07:44:58;;;;;;;22.73;17.93;;;;;;;-143.84;69.65;45148.09;5046627;28;20525;-74
2022/03/05 07:47:27;;;;;;;28.53;16.20;;;;;;;-143.84;69.87;45146.19;5048987;28;20857;-77
2022/03/05 07:49:54;;;;;;;21.93;16.60;;;;;;;-143.84;70.32;45138.56;5051344;28;20436;-78
2022/03/05 07:52:21;;;;;;;20.43;16.10;;;;;;;-143.84;69.77;45148.09;5050360;28;20448;-77
2022/03/05 07:54:49;;;;;;;21.10;16.40;;;;;;;-143.84;69.89;45155.69;5050630;28;20429;-78
2022/03/05 07:57:16;;;;;;;22.30;17.07;;;;;;;-143.84;69.62;45119.53;5050512;28;20875;-78
2022/03/05 07:59:43;;;;;;;23.47;16.80;;;;;;;-143.84;70.37;45165.22;5050393;28;20448;-77
2022/03/05 08:02:11;;;;;;;23.83;17.33;;;;;;;-143.84;69.88;45159.50;5050162;28;20448;-77
2022/03/05 08:04:40;;;;;;;21.40;17.10;;;;;;;-143.84;70.06;45144.28;5050039;28;20536;-78
2022/03/05 08:07:07;;;;;;;23.37;18.00;;;;;;;-143.84;70.34;45144.28;5049871;28;20511;-77
2022/03/05 08:09:36;;;;;;;25.33;18.03;;;;;;;-143.84;70.12;45178.56;5049924;28;20456;-77
2022/03/05 08:12:03;;;;;;;25.07;18.20;;;;;;;-143.84;70.85;45169.03;5050624;28;20485;-77
2022/03/05 08:14:31;;;;;;;25.80;17.90;;;;;;;-143.84;70.97;45150.00;5050437;28;21043;-77
2022/03/05 08:16:58;;;;;;;28.30;20.23;;;;;;;-143.84;71.21;45127.13;5049717;28;20447;-77
2022/03/05 08:19:25;;;;;;;29.03;18.70;;;;;;;-143.84;70.77;45140.47;5049783;28;20954;-77
2022/03/05 08:21:54;;;;;;;34.97;21.03;;;;;;;-143.84;71.20;45189.97;5049954;28;20459;-77
2022/03/05 08:24:22;;;;;;;33.87;19.03;;;;;;;-143.84;71.29;45132.84;5050014;28;20545;-77
2022/03/05 08:26:49;;;;;;;29.97;18.70;;;;;;;-143.84;72.05;45157.59;5050280;28;20439;-77
2022/03/05 08:29:16;;;;;;;24.77;18.90;;;;;;;-143.84;72.71;45151.91;5050327;28;20436;-77
2022/03/05 08:31:43;;;;;;;25.13;17.20;;;;;;;-143.84;72.91;45132.84;5049368;28;20810;-77
2022/03/05 08:34:10;;;;;;;26.37;19.20;;;;;;;-143.84;72.22;45150.00;5049923;28;20483;-78
2022/03/05 08:36:37;;;;;;;31.93;18.70;;;;;;;-143.84;72.12;45150.00;5050002;28;20505;-77
2022/03/05 08:39:06;;;;;;;28.60;19.40;;;;;;;-143.84;72.60;45146.19;5048843;28;20475;-74
2022/03/05 08:41:33;;;;;;;29.77;20.53;;;;;;;-143.84;71.83;45174.75;5047819;28;20455;-74
2022/03/05 08:44:00;;;;;;;26.10;19.13;;;;;;;-143.84;71.89;45136.66;5048526;28;20525;-75
2022/03/05 08:46:28;;;;;;;26.63;17.63;;;;;;;-143.84;72.68;45157.59;5047834;28;21030;-75
2022/03/05 08:48:55;;;;;;;23.63;18.10;;;;;;;-143.84;72.13;45155.69;5047245;28;20806;-74
2022/03/05 08:51:22;;;;;;;30.97;19.90;;;;;;;-143.84;72.30;45144.28;5047589;28;20485;-74
2022/03/05 08:53:50;;;;;;;29.23;19.93;;;;;;;-143.84;71.77;45144.28;5047685;28;20559;-74
2022/03/05 08:56:19;;;;;;;27.07;18.83;;;;;;;-143.84;72.48;45151.91;5048684;28;20490;-75
2022/03/05 08:58:46;;;;;;;33.23;22.17;;;;;;;-143.84;71.92;45144.28;5048201;28;20918;-75
2022/03/05 09:01:13;;;;;;;25.90;17.53;;;;;;;-143.84;71.20;45169.03;5046882;28;20495;-75
2022/03/05 09:03:40;;;;;;;25.03;18.30;;;;;;;-143.84;71.40;45140.47;5047313;28;20447;-75
2022/03/05 09:06:07;;;;;;;26.00;16.87;;;;;;;-143.84;72.22;45153.81;5046969;28;20453;-74
2022/03/05 09:08:37;;;;;;;22.20;16.20;;;;;;;-143.84;72.51;45163.31;5046441;28;20464;-72
2022/03/05 09:11:05;;;;;;;24.07;17.33;;;;;;;-143.84;71.08;45134.75;5046590;28;21073;-74
2022/03/05 09:13:33;;;;;;;25.67;17.80;;;;;;;-143.84;70.54;45150.00;5046059;28;20469;-73
2022/03/05 09:16:01;;;;;;;26.43;17.40;;;;;;;-143.84;69.99;45163.31;5045857;28;20503;-73
2022/03/05 09:18:28;;;;;;;25.90;17.13;;;;;;;-143.84;69.78;45136.66;5046949;28;20434;-73
2022/03/05 09:20:56;;;;;;;24.87;18.23;;;;;;;-143.84;68.58;45110.00;5044177;28;20911;-73
2022/03/05 09:23:23;;;;;;;21.73;16.97;;;;;;;-143.84;68.53;45142.38;5046596;28;20468;-73
2022/03/05 09:25:50;;;;;;;25.87;19.37;;;;;;;-143.84;68.89;45174.75;5048414;28;20525;-73
2022/03/05 09:28:17;;;;;;;28.60;20.70;;;;;;;-143.84;69.44;45117.63;5053256;28;20532;-74
2022/03/05 09:30:45;;;;;;;26.93;16.60;;;;;;;-143.84;68.48;45146.19;5063667;28;20451;-73
2022/03/05 09:33:13;;;;;;;26.33;18.57;;;;;;;-143.84;68.51;45129.03;5062331;28;20543;-74
2022/03/05 09:35:41;;;;;;;23.33;17.10;;;;;;;-143.84;67.04;45089.06;5055412;28;20452;-74
2022/03/05 09:38:08;;;;;;;23.97;18.00;;;;;;;-143.84;66.44;45138.56;5060476;28;20463;-75
2022/03/05 09:40:35;;;;;;;24.10;17.77;;;;;;;-143.84;67.09;45140.47;5061527;28;20961;-75
2022/03/05 09:43:03;;;;;;;27.30;18.80;;;;;;;-143.84;69.35;45165.22;5059453;28;20452;-75
2022/03/05 09:45:30;;;;;;;23.83;16.30;;;;;;;-143.84;67.49;45195.69;5061343;28;21147;-75
2022/03/05 09:47:59;;;;;;;22.63;15.97;;;;;;;-143.84;66.40;45157.59;5059677;28;20448;-74
2022/03/05 09:50:28;;;;;;;24.23;17.80;;;;;;;-143.84;67.13;45129.03;5061532;28;20460;-74
2022/03/05 09:52:56;;;;;;;24.90;18.47;;;;;;;-143.84;67.38;45132.84;5057184;28;20533;-74
2022/03/05 09:55:23;;;;;;;25.50;18.33;;;;;;;-143.84;65.97;45127.13;5059423;28;20445;-74
2022/03/05 09:57:50;;;;;;;24.17;17.27;;;;;;;-143.84;64.71;45138.56;5054279;28;20523;-74
2022/03/05 10:00:18;;;;;;;25.33;19.10;;;;;;;-143.84;65.80;45134.75;5060226;28;20487;-74
2022/03/05 10:02:47;;;;;;;25.43;16.53;;;;;;;-143.84;64.60;45170.94;5059202;28;20451;-74
2022/03/05 10:05:21;;;;;;;22.53;16.43;;;;;;;-143.84;64.91;45151.91;5060972;28;20451;-75
2022/03/05 10:08:10;;;;;;;21.93;16.57;;;;;;;-143.84;65.50;45146.19;5060062;28;20470;-74
2022/03/05 10:10:42;;;;;;;24.37;16.33;;;;;;;-143.84;64.94;45163.31;5057061;28;21034;-74
2022/03/05 10:13:20;;;;;;;22.87;16.90;;;;;;;-143.84;65.30;45144.28;5058640;28;20479;-74
2022/03/05 10:15:48;;;;;;;21.47;16.20;;;;;;;-143.84;65.65;45140.47;5060249;28;20444;-74
2022/03/05 10:18:16;;;;;;;25.83;17.00;;;;;;;-143.84;64.79;45151.91;5060261;28;20456;-73
2022/03/05 10:20:52;;;;;;;24.17;17.10;;;;;;;-143.84;65.92;45134.75;5061365;28;20452;-73
2022/03/05 10:23:20;;;;;;;26.33;19.20;;;;;;;-143.84;65.53;45157.59;5055720;28;20522;-73
2022/03/05 10:25:50;;;;;;;26.83;19.47;;;;;;;-143.84;65.38;45134.75;5054378;28;20457;-73
2022/03/05 10:28:19;;;;;;;30.30;17.77;;;;;;;-143.84;64.48;45151.91;5051447;28;20443;-73
2022/03/05 10:30:48;;;;;;;21.40;16.30;;;;;;;-143.84;65.82;45134.75;5059114;28;20965;-73
2022/03/05 10:33:28;;;;;;;25.00;17.63;;;;;;;-143.84;66.62;45161.41;5060521;28;20448;-74
2022/03/05 10:35:58;;;;;;;24.10;18.90;;;;;;;-143.84;66.79;45142.38;5060227;28;20456;-74
2022/03/05 10:38:43;;;;;;;20.83;16.57;;;;;;;-143.84;66.20;45142.38;5055320;28;21019;-74
2022/03/05 10:41:11;;;;;;;26.60;17.63;;;;;;;-143.84;66.61;45092.88;5055533;28;20441;-74
2022/03/05 10:43:38;;;;;;;22.00;17.57;;;;;;;-143.84;67.10;45106.19;5058042;28;20794;-75
2022/03/05 10:46:06;;;;;;;20.30;15.37;;;;;;;-143.84;67.41;45129.03;5057753;28;20962;-74
2022/03/05 10:48:36;;;;;;;22.30;17.70;;;;;;;-143.84;67.33;45119.53;5057852;28;20448;-74
2022/03/05 10:51:06;;;;;;;25.20;17.63;;;;;;;-143.84;66.06;45115.72;5057054;28;20457;-74
2022/03/05 10:53:38;;;;;;;21.70;17.33;;;;;;;-143.84;65.34;45117.63;5052968;28;20481;-75
2022/03/05 10:56:23;;;;;;;35.70;16.30;;;;;;;-143.84;64.45;45130.94;5052577;28;20442;-74
2022/03/05 10:59:00;;;;;;;21.83;15.70;;;;;;;-143.84;64.51;45136.66;5052298;28;20448;-74
2022/03/05 11:01:29;;;;;;;19.00;15.13;;;;;;;-143.84;63.60;45140.47;5054202;28;20454;-75
2022/03/05 11:03:57;;;;;;;21.10;15.93;;;;;;;-143.84;64.01;45163.31;5055369;28;20513;-75
2022/03/05 11:06:27;;;;;;;19.67;15.03;;;;;;;-143.84;64.00;45130.94;5055733;28;20498;-75
2022/03/05 11:08:54;;;;;;;22.10;16.60;;;;;;;-143.84;63.66;45153.81;5057254;28;20536;-74